Chicago, Illinois
Traffic Map
Current Weather Conditions
Chicago, Illinois
Overcast Light Snow
Overcast
27°
Feels Like: 16°
Wind Chill: 16° Ceiling: 3000
Heat Index: 27° Visibility: 1.5mi
Dew Point: 22° Wind: 13mph
Humidity: 81% Direction: 140° (SE)
Pressure: 30.04in Gusts: 0mph
Raw Report DataKMDW 111302Z 14011KT 1 1/2SM -SN BKN030 OVC042 M03/M06 A3004 RMK AO2 P0000 T10281056
Traffic Incident Summary
Active as of:
Severity:
Category:
InformationThere was an issue retrieving the traffic information for this location. Please try a different location or try again shortly.
Advertisements
Track Severe Weather on mobile